.
WxDataArchive / Data Records for 2008-09-07
2008-09-06 September 2008 2008-09-08

Data Records for Sunday, 07 September 2008

Time	Temp	Chill	HIndex	Humid	Dewpt	 Wind 	HiWind	WindDir	Rain 	Barom 
-----	----	-----	------	-----	-----	------	------	-------	-----	----- 
00:00	59.9	59.9	59.9	86	55.7	0	0	---	0.00	29.956 
00:05	59.9	59.9	59.9	85	55.4	0	0	---	0.00	29.956 
00:10	59.9	59.9	59.9	85	55.4	0	0	---	0.00	29.956 
00:15	60.1	60.1	60.1	85	55.6	0	0	---	0.00	29.950 
00:20	60.1	60.1	60.1	85	55.6	0	0	---	0.00	29.950 
00:25	60.2	60.2	60.2	85	55.7	0	0	---	0.00	29.950 
00:30	60.2	60.2	60.2	85	55.7	0	0	---	0.00	29.952 
00:35	60.4	60.4	60.4	85	55.9	0	0	---	0.00	29.952 
00:40	60.4	60.4	60.4	85	55.9	0	0	---	0.00	29.952 
00:45	60.5	60.5	60.5	85	56.0	0	0	---	0.00	29.953 
00:50	60.7	60.7	60.7	85	56.2	0	0	---	0.00	29.953 
00:55	60.7	60.7	60.7	85	56.2	0	0	---	0.00	29.953 
01:00	60.7	60.7	60.7	85	56.2	0	0	---	0.00	29.957 
01:05	60.7	60.7	60.7	85	56.2	0	0	---	0.00	29.957 
01:10	60.7	60.7	60.7	85	56.2	0	0	---	0.00	29.957 
01:15	60.7	60.7	60.7	86	56.5	0	0	---	0.00	29.956 
01:20	60.7	60.7	60.7	85	56.2	0	0	---	0.00	29.956 
01:25	60.7	60.7	60.7	86	56.5	0	0	---	0.00	29.956 
01:30	60.7	60.7	60.7	86	56.5	0	0	---	0.00	29.953 
01:35	60.9	60.9	60.9	86	56.7	0	0	---	0.00	29.953 
01:40	60.9	60.9	60.9	86	56.7	0	0	---	0.00	29.953 
01:45	60.9	60.9	60.9	86	56.7	0	0	---	0.00	29.947 
01:50	60.9	60.9	60.9	86	56.7	0	0	---	0.00	29.947 
01:55	60.9	60.9	60.9	86	56.7	0	0	---	0.00	29.947 
02:00	61.0	61.0	61.0	86	56.8	0	0	---	0.00	29.951 
02:05	61.0	61.0	61.0	86	56.8	0	0	---	0.00	29.951 
02:10	61.0	61.0	61.0	86	56.8	0	0	---	0.00	29.951 
02:15	61.2	61.2	61.2	86	57.0	0	0	---	0.00	29.946 
02:20	61.2	61.2	61.2	86	57.0	0	0	---	0.00	29.946 
02:25	61.2	61.2	61.2	86	57.0	0	0	---	0.00	29.946 
02:30	61.2	61.2	61.2	86	57.0	0	0	---	0.00	29.941 
02:35	61.2	61.2	61.2	86	57.0	0	0	---	0.00	29.941 
02:40	61.2	61.2	61.2	86	57.0	0	0	---	0.00	29.941 
02:45	61.2	61.2	61.2	86	57.0	0	0	---	0.00	29.938 
02:50	61.2	61.2	61.2	86	57.0	0	0	---	0.00	29.938 
02:55	61.2	61.2	61.2	86	57.0	0	0	---	0.00	29.938 
03:00	61.2	61.2	61.2	86	57.0	0	0	---	0.00	29.938 
03:05	61.2	61.2	61.2	86	57.0	0	0	---	0.00	29.938 
03:10	61.0	61.0	61.0	86	56.8	0	0	---	0.00	29.938 
03:15	61.0	61.0	61.0	86	56.8	0	0	---	0.00	29.932 
03:20	61.0	61.0	61.0	87	57.1	0	0	---	0.00	29.932 
03:25	61.0	61.0	61.0	87	57.1	0	0	---	0.00	29.932 
03:30	61.0	61.0	61.0	87	57.1	0	0	---	0.00	29.935 
03:35	61.0	61.0	61.0	87	57.1	0	0	---	0.00	29.935 
03:40	61.0	61.0	61.0	87	57.1	0	0	---	0.00	29.935 
03:45	61.2	61.2	61.2	87	57.3	0	0	---	0.00	29.932 
03:50	61.2	61.2	61.2	87	57.3	0	0	---	0.00	29.932 
03:55	61.2	61.2	61.2	88	57.6	0	0	---	0.00	29.932 
04:00	61.2	61.2	61.2	88	57.6	0	0	---	0.00	29.941 
04:05	61.2	61.2	61.2	88	57.6	0	0	---	0.00	29.941 
04:10	61.2	61.2	61.2	88	57.6	0	0	---	0.00	29.941 
04:15	61.3	61.3	61.3	88	57.7	0	0	---	0.00	29.943 
04:20	61.3	61.3	61.3	88	57.7	0	0	---	0.00	29.943 
04:25	61.5	61.5	61.5	89	58.2	0	0	---	0.00	29.943 
04:30	61.6	61.6	61.6	90	58.6	0	0	---	0.02	29.948 
04:35	61.6	61.6	61.6	90	58.6	0	1	338	0.00	29.948 
04:40	61.6	61.6	61.6	91	58.9	1	3	338	0.01	29.948 
04:45	61.3	61.3	61.3	91	58.6	1	3	270	0.02	29.972 
04:50	61.0	61.0	61.0	92	58.7	1	3	270	0.02	29.972 
04:55	60.9	60.9	60.9	92	58.6	0	3	270	0.01	29.972 
05:00	60.7	60.7	60.7	92	58.4	1	3	292	0.01	29.974 
05:05	60.5	60.5	60.5	93	58.5	1	3	292	0.02	29.974 
05:10	60.4	60.4	60.4	93	58.4	1	3	292	0.01	29.974 
05:15	60.4	60.4	60.4	94	58.7	0	2	292	0.00	29.979 
05:20	60.4	60.4	60.4	94	58.7	0	3	315	0.01	29.979 
05:25	60.2	60.2	60.2	94	58.5	1	3	292	0.00	29.979 
05:30	60.2	60.2	60.2	94	58.5	0	2	315	0.01	29.978 
05:35	60.2	60.2	60.2	94	58.5	0	1	315	0.01	29.978 
05:40	60.2	60.2	60.2	94	58.5	0	1	315	0.00	29.978 
05:45	60.1	60.1	60.1	95	58.7	0	0	---	0.00	29.964 
05:50	60.1	60.1	60.1	95	58.7	0	1	315	0.00	29.964 
05:55	60.1	60.1	60.1	95	58.7	0	0	---	0.00	29.964 
06:00	60.1	60.1	60.1	95	58.7	0	0	---	0.00	29.977 
06:05	60.1	60.1	60.1	95	58.7	0	0	---	0.00	29.977 
06:10	60.1	60.1	60.1	95	58.7	0	0	---	0.00	29.977 
06:15	60.1	60.1	60.1	95	58.7	0	0	---	0.01	29.989 
06:20	60.1	60.1	60.1	95	58.7	0	0	---	0.00	29.989 
06:25	59.9	59.9	59.9	95	58.5	0	1	315	0.00	29.989 
06:30	59.9	59.9	59.9	95	58.5	0	0	---	0.00	29.986 
06:35	59.9	59.9	59.9	95	58.5	0	0	---	0.00	29.986 
06:40	59.9	59.9	59.9	95	58.5	0	0	---	0.00	29.986 
06:45	59.9	59.9	59.9	95	58.5	0	0	---	0.00	29.992 
06:50	59.8	59.8	59.8	96	58.7	0	0	---	0.00	29.992 
06:55	59.8	59.8	59.8	95	58.4	0	0	---	0.00	29.992 
07:00	59.8	59.8	59.8	96	58.7	0	0	---	0.00	29.992 
07:05	59.9	59.9	59.9	96	58.8	0	0	---	0.00	29.992 
07:10	59.9	59.9	59.9	96	58.8	0	0	---	0.00	29.992 
07:15	60.1	60.1	60.1	96	59.0	0	0	---	0.00	30.001 
07:20	60.1	60.1	60.1	96	59.0	0	0	---	0.00	30.001 
07:25	60.1	60.1	60.1	96	59.0	0	0	---	0.00	30.001 
07:30	60.1	60.1	60.1	96	59.0	0	0	---	0.00	30.013 
07:35	60.1	60.1	60.1	96	59.0	0	0	---	0.00	30.013 
07:40	59.9	59.9	59.9	96	58.8	0	1	315	0.00	30.013 
07:45	59.9	59.9	59.9	96	58.8	0	0	---	0.00	30.013 
07:50	59.9	59.9	59.9	96	58.8	0	1	315	0.00	30.013 
07:55	60.1	60.1	60.1	96	59.0	0	0	---	0.00	30.013 
08:00	60.2	60.2	60.2	96	59.1	0	0	---	0.01	30.011 
08:05	60.4	60.4	60.4	96	59.3	0	0	---	0.00	30.011 
08:10	60.5	60.5	60.5	96	59.4	0	1	315	0.00	30.011 
08:15	60.5	60.5	60.5	96	59.4	0	0	---	0.00	30.014 
08:20	60.5	60.5	60.5	96	59.4	0	0	---	0.00	30.014 
08:25	60.5	60.5	60.5	96	59.4	0	1	315	0.00	30.014 
08:30	60.5	60.5	60.5	96	59.4	0	0	---	0.00	30.015 
08:35	60.5	60.5	60.5	96	59.4	0	0	---	0.00	30.015 
08:40	60.9	60.9	60.9	96	59.7	0	0	---	0.00	30.015 
08:45	61.0	61.0	61.0	96	59.8	0	1	315	0.00	30.015 
08:50	61.2	61.2	61.2	96	60.0	0	1	315	0.00	30.015 
08:55	61.3	61.3	61.3	96	60.1	0	1	315	0.00	30.015 
09:00	61.6	61.6	61.6	96	60.4	0	1	315	0.00	30.017 
09:05	61.5	61.5	61.5	95	60.1	0	2	315	0.00	30.017 
09:10	61.0	61.0	61.0	94	59.3	1	2	315	0.00	30.017 
09:15	61.0	61.0	61.0	94	59.3	0	1	315	0.00	30.023 
09:20	60.9	60.9	60.9	92	58.6	1	2	315	0.00	30.023 
09:25	61.2	61.2	61.2	92	58.9	0	1	315	0.00	30.023 
09:30	61.5	61.5	61.5	91	58.8	0	1	315	0.00	30.022 
09:35	62.0	62.0	62.0	89	58.7	0	2	315	0.00	30.022 
09:40	62.3	62.3	62.3	87	58.4	0	1	315	0.00	30.022 
09:45	62.4	62.4	62.4	86	58.2	0	1	315	0.00	30.022 
09:50	62.9	62.9	62.9	85	58.3	0	1	315	0.00	30.022 
09:55	63.5	63.5	63.5	83	58.2	0	2	225	0.00	30.022 
10:00	63.5	63.5	63.5	80	57.2	1	3	225	0.00	30.031 
10:05	63.9	63.9	63.9	78	56.9	1	2	248	0.00	30.031 
10:10	64.2	64.2	64.2	77	56.8	0	3	248	0.00	30.031 
10:15	64.3	64.3	64.3	77	56.9	0	2	248	0.00	30.031 
10:20	65.0	65.0	65.0	76	57.2	0	1	248	0.00	30.031 
10:25	65.2	65.2	65.2	73	56.3	1	3	248	0.00	30.031 
10:30	65.2	65.2	65.2	72	55.9	1	3	248	0.00	30.033 
10:35	65.0	65.0	65.0	73	56.1	1	3	315	0.00	30.033 
10:40	64.7	64.7	64.7	71	55.1	0	2	292	0.00	30.033 
10:45	64.5	64.5	64.5	72	55.3	1	3	315	0.00	30.037 
10:50	64.5	64.5	64.5	72	55.3	1	3	315	0.00	30.037 
10:55	64.7	64.7	64.7	73	55.8	1	3	270	0.00	30.037 
11:00	64.8	64.8	64.8	70	54.8	1	3	270	0.00	30.036 
11:05	65.0	65.0	65.0	69	54.6	1	4	270	0.00	30.036 
11:10	65.3	65.3	65.3	68	54.5	1	4	270	0.00	30.036 
11:15	65.6	65.6	65.6	68	54.7	1	3	270	0.00	30.034 
11:20	66.0	66.0	66.0	67	54.7	1	2	270	0.00	30.034 
11:25	66.1	66.1	66.1	66	54.4	1	3	225	0.00	30.034 
11:30	66.6	66.6	66.6	65	54.5	1	4	225	0.00	30.027 
11:35	67.4	67.4	67.4	63	54.4	1	3	248	0.00	30.027 
11:40	68.1	68.1	68.1	60	53.7	1	3	248	0.00	30.027 
11:45	68.8	68.8	68.8	59	53.9	1	2	248	0.00	30.027 
11:50	69.1	69.1	69.1	58	53.7	1	3	270	0.00	30.027 
11:55	69.3	69.3	69.3	56	52.9	1	4	270	0.00	30.027 
12:00	69.4	69.4	69.4	54	52.0	1	3	270	0.00	30.026 
12:05	69.6	69.6	69.6	56	53.2	1	3	315	0.00	30.026 
12:10	70.1	70.1	70.1	54	52.7	1	4	292	0.00	30.026 
12:15	70.4	70.4	70.4	55	53.4	1	3	248	0.00	30.027 
12:20	70.8	70.8	70.8	53	52.8	2	4	270	0.00	30.027 
12:25	71.1	71.1	71.1	52	52.6	1	4	270	0.00	30.027 
12:30	71.8	71.8	71.8	54	54.2	1	3	270	0.00	30.022 
12:35	72.0	72.0	72.0	53	53.9	1	4	270	0.00	30.022 
12:40	72.0	72.0	72.0	49	51.8	1	4	270	0.00	30.022 
12:45	72.3	72.3	72.3	50	52.6	1	3	270	0.00	30.011 
12:50	72.7	72.7	72.7	49	52.4	2	4	270	0.00	30.011 
12:55	72.7	72.7	72.7	49	52.4	2	5	270	0.00	30.011 
13:00	72.7	72.7	72.7	48	51.9	1	5	315	0.00	30.010 
13:05	72.3	72.3	72.3	48	51.5	2	5	248	0.00	30.010 
13:10	72.1	72.1	72.1	52	53.5	1	3	315	0.00	30.010 
13:15	72.5	72.5	72.5	49	52.2	2	4	270	0.00	30.013 
13:20	72.5	72.5	72.5	50	52.8	1	4	270	0.00	30.013 
13:25	72.7	72.7	72.7	53	54.6	1	3	315	0.00	30.013 
13:30	73.0	73.0	73.0	49	52.7	1	4	248	0.00	30.007 
13:35	73.0	73.0	73.0	46	51.0	1	5	248	0.00	30.007 
13:40	72.8	72.8	72.8	46	50.8	2	4	270	0.00	30.007 
13:45	72.1	72.1	72.1	48	51.3	1	5	248	0.00	30.007 
13:50	72.3	72.3	72.3	45	49.8	2	5	292	0.00	30.007 
13:55	72.1	72.1	72.1	46	50.2	1	4	248	0.00	30.007 
14:00	72.1	72.1	72.1	48	51.3	2	5	248	0.00	30.006 
14:05	72.3	72.3	72.3	44	49.2	2	5	270	0.00	30.006 
14:10	72.7	72.7	72.7	46	50.7	1	5	315	0.00	30.006 
14:15	73.0	73.0	73.0	46	51.0	1	4	292	0.00	30.004 
14:20	73.3	73.3	73.3	43	49.4	2	5	270	0.00	30.004 
14:25	73.5	73.5	73.5	43	49.6	1	4	270	0.00	30.004 
14:30	74.0	74.0	74.0	43	50.1	2	5	270	0.00	30.007 
14:35	74.4	74.4	74.4	42	49.8	2	6	248	0.00	30.007 
14:40	74.9	74.9	74.9	42	50.2	1	3	270	0.00	30.007 
14:45	74.9	74.9	74.9	42	50.2	1	6	248	0.00	30.005 
14:50	74.6	74.6	74.6	39	48.0	2	5	248	0.00	30.005 
14:55	74.0	74.0	74.0	41	48.8	2	4	270	0.00	30.005 
15:00	74.0	74.0	74.0	44	50.7	1	4	248	0.00	29.999 
15:05	74.4	74.4	74.4	43	50.4	2	4	248	0.00	29.999 
15:10	74.4	74.4	74.4	41	49.1	2	4	292	0.00	29.999 
15:15	74.2	74.2	74.2	40	48.3	2	4	270	0.00	29.995 
15:20	73.9	73.9	73.9	43	50.0	1	3	270	0.00	29.995 
15:25	73.9	73.9	73.9	42	49.3	1	3	292	0.00	29.995 
15:30	73.7	73.7	73.7	41	48.5	1	3	292	0.00	29.994 
15:35	73.5	73.5	73.5	42	49.0	1	5	315	0.00	29.994 
15:40	73.7	73.7	73.7	43	49.8	1	4	315	0.00	29.994 
15:45	73.9	73.9	73.9	42	49.3	2	4	270	0.00	29.997 
15:50	73.3	73.3	73.3	43	49.4	2	5	270	0.00	29.997 
15:55	73.5	73.5	73.5	42	49.0	1	3	270	0.00	29.997 
16:00	73.7	73.7	73.7	40	47.9	2	4	248	0.00	29.996 
16:05	73.7	73.7	73.7	43	49.8	1	3	270	0.00	29.996 
16:10	73.7	73.7	73.7	42	49.2	2	4	270	0.00	29.996 
16:15	73.2	73.2	73.2	42	48.7	1	3	270	0.00	29.997 
16:20	72.7	72.7	72.7	44	49.5	1	2	248	0.00	29.997 
16:25	72.8	72.8	72.8	44	49.6	1	3	270	0.00	29.997 
16:30	73.2	73.2	73.2	42	48.7	1	3	270	0.00	30.001 
16:35	73.3	73.3	73.3	42	48.8	1	4	315	0.00	30.001 
16:40	73.5	73.5	73.5	41	48.3	2	5	270	0.00	30.001 
16:45	73.3	73.3	73.3	42	48.8	1	4	270	0.00	30.006 
16:50	73.0	73.0	73.0	44	49.8	1	3	270	0.00	30.006 
16:55	73.0	73.0	73.0	41	47.9	1	5	248	0.00	30.006 
17:00	73.0	73.0	73.0	41	47.9	1	4	270	0.00	30.008 
17:05	73.2	73.2	73.2	41	48.1	1	3	270	0.00	30.008 
17:10	73.2	73.2	73.2	43	49.3	1	5	248	0.00	30.008 
17:15	73.0	73.0	73.0	42	48.5	1	4	248	0.00	30.017 
17:20	72.7	72.7	72.7	43	48.9	1	3	225	0.00	30.017 
17:25	72.5	72.5	72.5	43	48.7	1	3	248	0.00	30.017 
17:30	72.5	72.5	72.5	43	48.7	1	2	270	0.00	30.020 
17:35	72.5	72.5	72.5	44	49.3	2	5	270	0.00	30.020 
17:40	72.3	72.3	72.3	43	48.5	1	5	270	0.00	30.020 
17:45	72.1	72.1	72.1	44	49.0	1	2	248	0.00	30.022 
17:50	72.0	72.0	72.0	45	49.5	1	3	292	0.00	30.022 
17:55	71.8	71.8	71.8	45	49.3	1	3	270	0.00	30.022 
18:00	71.6	71.6	71.6	45	49.1	1	2	270	0.00	30.023 
18:05	71.5	71.5	71.5	45	49.0	1	3	270	0.00	30.023 
18:10	71.1	71.1	71.1	45	48.7	1	3	248	0.00	30.023 
18:15	70.8	70.8	70.8	46	49.0	1	3	248	0.00	30.027 
18:20	70.6	70.6	70.6	47	49.4	0	2	248	0.00	30.027 
18:25	70.4	70.4	70.4	47	49.2	1	5	248	0.00	30.027 
18:30	70.3	70.3	70.3	46	48.5	1	4	248	0.00	30.028 
18:35	70.1	70.1	70.1	47	48.9	1	3	248	0.00	30.028 
18:40	69.8	69.8	69.8	48	49.2	0	1	248	0.00	30.028 
18:45	69.4	69.4	69.4	49	49.4	0	2	248	0.00	30.028 
18:50	69.1	69.1	69.1	49	49.1	0	2	248	0.00	30.028 
18:55	68.9	68.9	68.9	50	49.5	0	1	248	0.00	30.028 
19:00	68.6	68.6	68.6	51	49.7	0	1	248	0.00	30.029 
19:05	68.3	68.3	68.3	52	50.0	0	1	248	0.00	30.029 
19:10	67.9	67.9	67.9	53	50.1	0	1	248	0.00	30.029 
19:15	67.6	67.6	67.6	54	50.4	0	1	248	0.00	30.032 
19:20	67.3	67.3	67.3	54	50.1	0	0	---	0.00	30.032 
19:25	67.1	67.1	67.1	55	50.4	0	1	248	0.00	30.032 
19:30	66.8	66.8	66.8	56	50.6	0	0	---	0.00	30.035 
19:35	66.4	66.4	66.4	57	50.7	0	0	---	0.00	30.035 
19:40	66.0	66.0	66.0	58	50.8	0	0	---	0.00	30.035 
19:45	65.6	65.6	65.6	59	50.9	0	0	---	0.00	30.046 
19:50	65.2	65.2	65.2	60	51.0	0	0	---	0.00	30.046 
19:55	64.8	64.8	64.8	60	50.6	0	0	---	0.00	30.046 
20:00	64.5	64.5	64.5	61	50.7	0	0	---	0.00	30.052 
20:05	64.2	64.2	64.2	61	50.5	0	0	---	0.00	30.052 
20:10	63.9	63.9	63.9	63	51.1	0	0	---	0.00	30.052 
20:15	63.4	63.4	63.4	64	51.0	0	0	---	0.00	30.054 
20:20	63.1	63.1	63.1	65	51.1	0	0	---	0.00	30.054 
20:25	62.7	62.7	62.7	65	50.8	0	0	---	0.00	30.054 
20:30	62.4	62.4	62.4	66	50.9	0	0	---	0.00	30.061 
20:35	62.1	62.1	62.1	68	51.4	0	0	---	0.00	30.061 
20:40	61.8	61.8	61.8	68	51.1	0	0	---	0.00	30.061 
20:45	61.5	61.5	61.5	69	51.2	0	0	---	0.00	30.063 
20:50	61.2	61.2	61.2	70	51.3	0	0	---	0.00	30.063 
20:55	60.9	60.9	60.9	71	51.4	0	0	---	0.00	30.063 
21:00	60.5	60.5	60.5	72	51.4	0	0	---	0.00	30.068 
21:05	60.2	60.2	60.2	73	51.5	0	0	---	0.00	30.068 
21:10	60.1	60.1	60.1	73	51.4	0	0	---	0.00	30.068 
21:15	59.8	59.8	59.8	74	51.5	0	0	---	0.00	30.068 
21:20	59.6	59.6	59.6	75	51.7	0	0	---	0.00	30.068 
21:25	59.3	59.3	59.3	76	51.7	0	0	---	0.00	30.068 
21:30	59.2	59.2	59.2	76	51.6	0	0	---	0.00	30.066 
21:35	58.9	58.9	58.9	77	51.7	0	0	---	0.00	30.066 
21:40	58.7	58.7	58.7	78	51.9	0	0	---	0.00	30.066 
21:45	58.4	58.4	58.4	79	51.9	0	0	---	0.00	30.074 
21:50	58.3	58.3	58.3	79	51.8	0	0	---	0.00	30.074 
21:55	58.1	58.1	58.1	80	52.0	0	0	---	0.00	30.074 
22:00	57.8	57.8	57.8	81	52.0	0	0	---	0.00	30.078 
22:05	57.6	57.6	57.6	81	51.8	0	0	---	0.00	30.078 
22:10	57.5	57.5	57.5	81	51.7	0	0	---	0.00	30.078 
22:15	57.3	57.3	57.3	82	51.9	0	0	---	0.00	30.077 
22:20	57.2	57.2	57.2	83	52.1	0	0	---	0.00	30.077 
22:25	57.0	57.0	57.0	83	51.9	0	0	---	0.00	30.077 
22:30	56.9	56.9	56.9	84	52.1	0	0	---	0.00	30.080 
22:35	56.7	56.7	56.7	84	51.9	0	0	---	0.00	30.080 
22:40	56.7	56.7	56.7	84	51.9	0	0	---	0.00	30.080 
22:45	56.6	56.6	56.6	84	51.8	0	0	---	0.00	30.081 
22:50	56.5	56.5	56.5	84	51.7	0	0	---	0.00	30.081 
22:55	56.3	56.3	56.3	85	51.8	0	0	---	0.00	30.081 
23:00	56.3	56.3	56.3	85	51.8	0	0	---	0.00	30.079 
23:05	56.2	56.2	56.2	86	52.1	0	0	---	0.00	30.079 
23:10	56.2	56.2	56.2	86	52.1	0	0	---	0.00	30.079 
23:15	56.2	56.2	56.2	86	52.1	0	0	---	0.00	30.079 
23:20	56.0	56.0	56.0	87	52.2	0	0	---	0.00	30.079 
23:25	56.0	56.0	56.0	87	52.2	0	0	---	0.00	30.079 
23:30	55.9	55.9	55.9	87	52.1	0	0	---	0.00	30.080 
23:35	55.7	55.7	55.7	87	51.9	0	0	---	0.00	30.080 
23:40	55.7	55.7	55.7	87	51.9	0	0	---	0.00	30.080 
23:45	55.6	55.6	55.6	87	51.8	0	0	---	0.00	30.081 
23:50	55.4	55.4	55.4	88	51.9	0	0	---	0.00	30.081 
23:55	55.3	55.3	55.3	88	51.8	0	0	---	0.00	30.081 

CoCoRaHS
IN-AL-39
A2 Web Hosting
Creative Commons License
GoDaddy
Look for:

loaded 2017-10-19 14:44:37 • last modified 2010-11-18 10:43:29
Privacy PolicyDisclaimer
• wx.awcolley.com is powered by PmWiki v.2002016 •
• all content (unless otherwise noted) © 2017 A W Colley